sensor_id;sensor_type;location;lat;lon;timestamp;P1;durP1;ratioP1;P2;durP2;ratioP2
18780;SDS011;9519;51.890;8.970;2023-02-08T00:03:14;49.70;;;27.50;;
18780;SDS011;9519;51.890;8.970;2023-02-08T00:08:17;47.97;;;26.33;;
18780;SDS011;9519;51.890;8.970;2023-02-08T00:13:19;47.70;;;25.90;;
18780;SDS011;9519;51.890;8.970;2023-02-08T00:18:23;48.33;;;25.30;;
18780;SDS011;9519;51.890;8.970;2023-02-08T00:23:25;44.80;;;23.30;;
18780;SDS011;9519;51.890;8.970;2023-02-08T00:28:27;57.13;;;29.87;;
18780;SDS011;9519;51.890;8.970;2023-02-08T00:33:31;54.67;;;31.77;;
18780;SDS011;9519;51.890;8.970;2023-02-08T00:38:33;40.60;;;25.37;;
18780;SDS011;9519;51.890;8.970;2023-02-08T00:43:35;33.60;;;21.40;;
18780;SDS011;9519;51.890;8.970;2023-02-08T00:48:39;30.33;;;18.67;;
18780;SDS011;9519;51.890;8.970;2023-02-08T00:53:42;29.83;;;18.87;;
18780;SDS011;9519;51.890;8.970;2023-02-08T00:58:45;28.70;;;18.47;;
18780;SDS011;9519;51.890;8.970;2023-02-08T01:03:49;29.27;;;17.77;;
18780;SDS011;9519;51.890;8.970;2023-02-08T01:08:51;25.83;;;17.63;;
18780;SDS011;9519;51.890;8.970;2023-02-08T01:13:54;24.90;;;16.97;;
18780;SDS011;9519;51.890;8.970;2023-02-08T01:19:00;29.73;;;18.23;;
18780;SDS011;9519;51.890;8.970;2023-02-08T01:24:05;28.30;;;17.97;;
18780;SDS011;9519;51.890;8.970;2023-02-08T01:29:07;26.63;;;18.53;;
18780;SDS011;9519;51.890;8.970;2023-02-08T01:34:11;27.57;;;17.30;;
18780;SDS011;9519;51.890;8.970;2023-02-08T01:39:14;26.43;;;17.93;;
18780;SDS011;9519;51.890;8.970;2023-02-08T01:50:25;27.57;;;18.50;;
18780;SDS011;9519;51.890;8.970;2023-02-08T01:55:34;43.30;;;24.87;;
18780;SDS011;9519;51.890;8.970;2023-02-08T02:00:45;47.33;;;25.97;;
18780;SDS011;9519;51.890;8.970;2023-02-08T02:05:53;35.03;;;21.83;;
18780;SDS011;9519;51.890;8.970;2023-02-08T02:11:01;42.53;;;25.20;;
18780;SDS011;9519;51.890;8.970;2023-02-08T02:16:03;44.17;;;25.27;;
18780;SDS011;9519;51.890;8.970;2023-02-08T02:21:15;42.53;;;24.17;;
18780;SDS011;9519;51.890;8.970;2023-02-08T02:32:27;30.90;;;19.70;;
18780;SDS011;9519;51.890;8.970;2023-02-08T02:38:01;29.13;;;19.87;;
18780;SDS011;9519;51.890;8.970;2023-02-08T02:43:15;33.03;;;19.87;;
18780;SDS011;9519;51.890;8.970;2023-02-08T02:48:47;27.60;;;18.17;;
18780;SDS011;9519;51.890;8.970;2023-02-08T02:53:59;33.20;;;19.37;;
18780;SDS011;9519;51.890;8.970;2023-02-08T02:59:09;31.70;;;18.80;;
18780;SDS011;9519;51.890;8.970;2023-02-08T03:04:15;29.33;;;19.60;;
18780;SDS011;9519;51.890;8.970;2023-02-08T03:09:25;28.93;;;18.67;;
18780;SDS011;9519;51.890;8.970;2023-02-08T03:14:48;27.40;;;17.70;;
18780;SDS011;9519;51.890;8.970;2023-02-08T03:20:06;25.87;;;17.00;;
18780;SDS011;9519;51.890;8.970;2023-02-08T03:25:14;26.23;;;16.57;;
18780;SDS011;9519;51.890;8.970;2023-02-08T03:30:25;27.20;;;18.47;;
18780;SDS011;9519;51.890;8.970;2023-02-08T03:35:36;24.30;;;16.43;;
18780;SDS011;9519;51.890;8.970;2023-02-08T03:40:46;29.30;;;19.07;;
18780;SDS011;9519;51.890;8.970;2023-02-08T03:45:54;30.87;;;19.77;;
18780;SDS011;9519;51.890;8.970;2023-02-08T03:51:05;33.97;;;21.13;;
18780;SDS011;9519;51.890;8.970;2023-02-08T03:56:10;32.40;;;20.10;;
18780;SDS011;9519;51.890;8.970;2023-02-08T04:01:29;31.23;;;18.63;;
18780;SDS011;9519;51.890;8.970;2023-02-08T04:06:40;28.13;;;17.83;;
18780;SDS011;9519;51.890;8.970;2023-02-08T04:11:42;33.83;;;19.40;;
18780;SDS011;9519;51.890;8.970;2023-02-08T04:16:44;33.03;;;19.33;;
18780;SDS011;9519;51.890;8.970;2023-02-08T04:21:48;27.40;;;17.83;;
18780;SDS011;9519;51.890;8.970;2023-02-08T04:26:50;30.83;;;19.10;;
18780;SDS011;9519;51.890;8.970;2023-02-08T04:31:52;30.80;;;18.27;;
18780;SDS011;9519;51.890;8.970;2023-02-08T04:36:56;33.33;;;18.93;;
18780;SDS011;9519;51.890;8.970;2023-02-08T04:41:58;29.50;;;19.03;;
18780;SDS011;9519;51.890;8.970;2023-02-08T04:47:00;33.73;;;19.67;;
18780;SDS011;9519;51.890;8.970;2023-02-08T04:52:04;28.73;;;18.67;;
18780;SDS011;9519;51.890;8.970;2023-02-08T04:57:07;31.03;;;18.73;;
18780;SDS011;9519;51.890;8.970;2023-02-08T05:02:12;33.57;;;19.10;;
18780;SDS011;9519;51.890;8.970;2023-02-08T05:07:16;29.73;;;18.73;;
18780;SDS011;9519;51.890;8.970;2023-02-08T05:12:18;35.20;;;22.90;;
18780;SDS011;9519;51.890;8.970;2023-02-08T05:17:20;38.87;;;24.77;;
18780;SDS011;9519;51.890;8.970;2023-02-08T05:22:24;39.50;;;24.07;;
18780;SDS011;9519;51.890;8.970;2023-02-08T05:27:26;37.00;;;21.90;;
18780;SDS011;9519;51.890;8.970;2023-02-08T05:32:28;32.43;;;21.43;;
18780;SDS011;9519;51.890;8.970;2023-02-08T05:37:33;29.80;;;19.67;;
18780;SDS011;9519;51.890;8.970;2023-02-08T05:42:36;28.17;;;17.53;;
18780;SDS011;9519;51.890;8.970;2023-02-08T05:47:38;28.03;;;16.23;;
18780;SDS011;9519;51.890;8.970;2023-02-08T05:52:42;27.00;;;16.57;;
18780;SDS011;9519;51.890;8.970;2023-02-08T05:57:44;25.80;;;16.70;;
18780;SDS011;9519;51.890;8.970;2023-02-08T06:02:46;26.80;;;17.17;;
18780;SDS011;9519;51.890;8.970;2023-02-08T06:07:50;25.27;;;16.83;;
18780;SDS011;9519;51.890;8.970;2023-02-08T06:12:54;27.80;;;19.17;;
18780;SDS011;9519;51.890;8.970;2023-02-08T06:17:57;29.67;;;18.50;;
18780;SDS011;9519;51.890;8.970;2023-02-08T06:23:00;27.83;;;16.37;;
18780;SDS011;9519;51.890;8.970;2023-02-08T06:28:03;26.40;;;17.13;;
18780;SDS011;9519;51.890;8.970;2023-02-08T06:33:05;31.43;;;18.33;;
18780;SDS011;9519;51.890;8.970;2023-02-08T06:38:09;28.10;;;17.30;;
18780;SDS011;9519;51.890;8.970;2023-02-08T06:43:11;27.90;;;17.10;;
18780;SDS011;9519;51.890;8.970;2023-02-08T06:48:14;24.73;;;16.57;;
18780;SDS011;9519;51.890;8.970;2023-02-08T06:53:18;25.00;;;16.50;;
18780;SDS011;9519;51.890;8.970;2023-02-08T06:58:20;28.17;;;17.30;;
18780;SDS011;9519;51.890;8.970;2023-02-08T07:03:22;25.17;;;16.70;;
18780;SDS011;9519;51.890;8.970;2023-02-08T07:08:26;22.93;;;15.80;;
18780;SDS011;9519;51.890;8.970;2023-02-08T07:13:28;27.23;;;16.70;;
18780;SDS011;9519;51.890;8.970;2023-02-08T07:18:30;29.23;;;16.97;;
18780;SDS011;9519;51.890;8.970;2023-02-08T07:23:35;29.97;;;19.07;;
18780;SDS011;9519;51.890;8.970;2023-02-08T07:28:37;27.87;;;18.23;;
18780;SDS011;9519;51.890;8.970;2023-02-08T07:33:39;28.30;;;18.10;;
18780;SDS011;9519;51.890;8.970;2023-02-08T07:38:43;27.40;;;17.50;;
18780;SDS011;9519;51.890;8.970;2023-02-08T07:43:47;27.37;;;17.70;;
18780;SDS011;9519;51.890;8.970;2023-02-08T07:48:49;25.73;;;17.27;;
18780;SDS011;9519;51.890;8.970;2023-02-08T07:53:54;27.63;;;17.37;;
18780;SDS011;9519;51.890;8.970;2023-02-08T07:58:56;26.83;;;17.70;;
18780;SDS011;9519;51.890;8.970;2023-02-08T08:03:58;27.73;;;18.03;;
18780;SDS011;9519;51.890;8.970;2023-02-08T08:09:02;26.80;;;17.63;;
18780;SDS011;9519;51.890;8.970;2023-02-08T08:14:04;27.40;;;17.93;;
18780;SDS011;9519;51.890;8.970;2023-02-08T08:19:07;26.80;;;16.90;;
18780;SDS011;9519;51.890;8.970;2023-02-08T08:24:11;28.90;;;19.13;;
18780;SDS011;9519;51.890;8.970;2023-02-08T08:29:13;27.80;;;18.37;;
18780;SDS011;9519;51.890;8.970;2023-02-08T08:34:15;26.77;;;17.27;;
18780;SDS011;9519;51.890;8.970;2023-02-08T08:39:19;28.53;;;18.00;;
18780;SDS011;9519;51.890;8.970;2023-02-08T08:44:21;29.03;;;18.53;;
18780;SDS011;9519;51.890;8.970;2023-02-08T08:49:24;27.93;;;18.87;;
18780;SDS011;9519;51.890;8.970;2023-02-08T08:54:29;31.13;;;18.27;;
18780;SDS011;9519;51.890;8.970;2023-02-08T08:59:32;28.40;;;18.53;;
18780;SDS011;9519;51.890;8.970;2023-02-08T09:04:35;31.33;;;17.77;;
18780;SDS011;9519;51.890;8.970;2023-02-08T09:09:41;30.90;;;18.73;;
18780;SDS011;9519;51.890;8.970;2023-02-08T09:14:46;29.50;;;18.57;;
18780;SDS011;9519;51.890;8.970;2023-02-08T09:19:49;30.80;;;18.90;;
18780;SDS011;9519;51.890;8.970;2023-02-08T09:24:52;29.57;;;19.10;;
18780;SDS011;9519;51.890;8.970;2023-02-08T09:29:54;27.80;;;17.77;;
18780;SDS011;9519;51.890;8.970;2023-02-08T09:34:58;29.47;;;19.40;;
18780;SDS011;9519;51.890;8.970;2023-02-08T09:40:03;26.13;;;18.33;;
18780;SDS011;9519;51.890;8.970;2023-02-08T09:45:16;37.10;;;23.47;;
18780;SDS011;9519;51.890;8.970;2023-02-08T09:50:31;26.10;;;17.53;;
18780;SDS011;9519;51.890;8.970;2023-02-08T09:55:40;26.77;;;17.57;;
18780;SDS011;9519;51.890;8.970;2023-02-08T10:00:47;31.67;;;18.67;;
18780;SDS011;9519;51.890;8.970;2023-02-08T10:05:52;24.77;;;17.17;;
18780;SDS011;9519;51.890;8.970;2023-02-08T10:10:58;26.40;;;17.83;;
18780;SDS011;9519;51.890;8.970;2023-02-08T10:16:20;27.23;;;16.67;;
18780;SDS011;9519;51.890;8.970;2023-02-08T10:21:47;23.23;;;16.37;;
18780;SDS011;9519;51.890;8.970;2023-02-08T10:27:07;25.53;;;16.67;;
18780;SDS011;9519;51.890;8.970;2023-02-08T10:37:56;26.33;;;15.50;;
18780;SDS011;9519;51.890;8.970;2023-02-08T10:43:02;24.83;;;15.37;;
18780;SDS011;9519;51.890;8.970;2023-02-08T10:48:22;22.17;;;15.67;;
18780;SDS011;9519;51.890;8.970;2023-02-08T10:53:37;23.87;;;15.17;;
18780;SDS011;9519;51.890;8.970;2023-02-08T10:58:40;25.13;;;15.63;;
18780;SDS011;9519;51.890;8.970;2023-02-08T11:09:05;22.30;;;14.63;;
18780;SDS011;9519;51.890;8.970;2023-02-08T11:14:12;22.40;;;14.50;;
18780;SDS011;9519;51.890;8.970;2023-02-08T11:19:23;21.83;;;14.23;;
18780;SDS011;9519;51.890;8.970;2023-02-08T11:24:34;20.97;;;14.73;;
18780;SDS011;9519;51.890;8.970;2023-02-08T11:29:43;21.57;;;14.37;;
18780;SDS011;9519;51.890;8.970;2023-02-08T11:34:45;21.57;;;13.53;;
18780;SDS011;9519;51.890;8.970;2023-02-08T11:39:48;20.73;;;14.60;;
18780;SDS011;9519;51.890;8.970;2023-02-08T11:44:58;22.33;;;15.27;;
18780;SDS011;9519;51.890;8.970;2023-02-08T11:50:02;19.60;;;13.80;;
18780;SDS011;9519;51.890;8.970;2023-02-08T11:55:11;17.77;;;11.90;;
18780;SDS011;9519;51.890;8.970;2023-02-08T12:00:26;21.87;;;12.77;;
18780;SDS011;9519;51.890;8.970;2023-02-08T12:05:33;19.70;;;13.07;;
18780;SDS011;9519;51.890;8.970;2023-02-08T12:10:55;19.27;;;12.20;;
18780;SDS011;9519;51.890;8.970;2023-02-08T12:16:18;22.17;;;13.57;;
18780;SDS011;9519;51.890;8.970;2023-02-08T12:21:36;21.30;;;13.33;;
18780;SDS011;9519;51.890;8.970;2023-02-08T12:26:51;18.40;;;12.43;;
18780;SDS011;9519;51.890;8.970;2023-02-08T12:32:15;17.57;;;11.90;;
18780;SDS011;9519;51.890;8.970;2023-02-08T12:37:44;17.40;;;11.23;;
18780;SDS011;9519;51.890;8.970;2023-02-08T12:43:30;17.87;;;11.57;;
18780;SDS011;9519;51.890;8.970;2023-02-08T12:54:29;13.90;;;10.10;;
18780;SDS011;9519;51.890;8.970;2023-02-08T12:59:40;16.27;;;9.77;;
18780;SDS011;9519;51.890;8.970;2023-02-08T13:04:50;13.67;;;8.73;;
18780;SDS011;9519;51.890;8.970;2023-02-08T13:09:59;12.67;;;8.37;;
18780;SDS011;9519;51.890;8.970;2023-02-08T13:15:07;13.83;;;9.17;;
18780;SDS011;9519;51.890;8.970;2023-02-08T13:20:27;12.80;;;8.80;;
18780;SDS011;9519;51.890;8.970;2023-02-08T13:25:40;12.67;;;8.37;;
18780;SDS011;9519;51.890;8.970;2023-02-08T13:30:45;15.07;;;9.57;;
18780;SDS011;9519;51.890;8.970;2023-02-08T13:35:57;13.93;;;9.77;;
18780;SDS011;9519;51.890;8.970;2023-02-08T13:41:03;13.53;;;9.40;;
18780;SDS011;9519;51.890;8.970;2023-02-08T13:46:16;14.00;;;8.93;;
18780;SDS011;9519;51.890;8.970;2023-02-08T13:56:54;12.50;;;8.73;;
18780;SDS011;9519;51.890;8.970;2023-02-08T14:07:35;12.03;;;7.40;;
18780;SDS011;9519;51.890;8.970;2023-02-08T14:12:46;9.77;;;6.40;;
18780;SDS011;9519;51.890;8.970;2023-02-08T14:17:58;12.27;;;7.23;;
18780;SDS011;9519;51.890;8.970;2023-02-08T14:23:04;11.33;;;6.20;;
18780;SDS011;9519;51.890;8.970;2023-02-08T14:28:22;10.80;;;6.20;;
18780;SDS011;9519;51.890;8.970;2023-02-08T14:33:29;9.10;;;6.17;;
18780;SDS011;9519;51.890;8.970;2023-02-08T14:50:03;11.53;;;6.97;;
18780;SDS011;9519;51.890;8.970;2023-02-08T14:55:18;10.87;;;6.53;;
18780;SDS011;9519;51.890;8.970;2023-02-08T15:00:27;10.57;;;7.10;;
18780;SDS011;9519;51.890;8.970;2023-02-08T15:05:35;12.77;;;6.70;;
18780;SDS011;9519;51.890;8.970;2023-02-08T15:10:47;10.40;;;7.03;;
18780;SDS011;9519;51.890;8.970;2023-02-08T15:15:50;10.67;;;7.20;;
18780;SDS011;9519;51.890;8.970;2023-02-08T15:20:58;9.87;;;5.93;;
18780;SDS011;9519;51.890;8.970;2023-02-08T15:26:14;10.73;;;6.63;;
18780;SDS011;9519;51.890;8.970;2023-02-08T15:31:24;12.33;;;6.53;;
18780;SDS011;9519;51.890;8.970;2023-02-08T15:36:32;10.50;;;6.37;;
18780;SDS011;9519;51.890;8.970;2023-02-08T15:41:40;10.70;;;6.13;;
18780;SDS011;9519;51.890;8.970;2023-02-08T15:46:42;11.30;;;6.27;;
18780;SDS011;9519;51.890;8.970;2023-02-08T15:51:46;10.40;;;5.87;;
18780;SDS011;9519;51.890;8.970;2023-02-08T15:56:52;9.37;;;5.93;;
18780;SDS011;9519;51.890;8.970;2023-02-08T16:02:01;14.70;;;8.77;;
18780;SDS011;9519;51.890;8.970;2023-02-08T16:07:23;9.83;;;6.57;;
18780;SDS011;9519;51.890;8.970;2023-02-08T16:12:32;13.43;;;6.77;;
18780;SDS011;9519;51.890;8.970;2023-02-08T16:17:37;11.60;;;6.23;;
18780;SDS011;9519;51.890;8.970;2023-02-08T16:22:44;14.20;;;7.03;;
18780;SDS011;9519;51.890;8.970;2023-02-08T16:27:57;12.17;;;7.47;;
18780;SDS011;9519;51.890;8.970;2023-02-08T16:33:06;9.57;;;6.30;;
18780;SDS011;9519;51.890;8.970;2023-02-08T16:38:11;13.07;;;8.03;;
18780;SDS011;9519;51.890;8.970;2023-02-08T16:43:23;11.60;;;6.43;;
18780;SDS011;9519;51.890;8.970;2023-02-08T16:48:28;12.73;;;7.80;;
18780;SDS011;9519;51.890;8.970;2023-02-08T16:53:35;10.53;;;6.57;;
18780;SDS011;9519;51.890;8.970;2023-02-08T16:58:38;10.63;;;6.70;;
18780;SDS011;9519;51.890;8.970;2023-02-08T17:03:40;10.67;;;6.87;;
18780;SDS011;9519;51.890;8.970;2023-02-08T17:08:43;12.53;;;7.70;;
18780;SDS011;9519;51.890;8.970;2023-02-08T17:13:46;12.13;;;7.20;;
18780;SDS011;9519;51.890;8.970;2023-02-08T17:18:48;12.47;;;8.83;;
18780;SDS011;9519;51.890;8.970;2023-02-08T17:23:51;14.17;;;8.60;;
18780;SDS011;9519;51.890;8.970;2023-02-08T17:28:56;15.03;;;7.73;;
18780;SDS011;9519;51.890;8.970;2023-02-08T17:34:01;13.63;;;9.40;;
18780;SDS011;9519;51.890;8.970;2023-02-08T17:39:04;12.57;;;7.20;;
18780;SDS011;9519;51.890;8.970;2023-02-08T17:44:08;22.57;;;13.67;;
18780;SDS011;9519;51.890;8.970;2023-02-08T17:49:11;39.57;;;22.03;;
18780;SDS011;9519;51.890;8.970;2023-02-08T17:54:15;14.03;;;7.90;;
18780;SDS011;9519;51.890;8.970;2023-02-08T17:59:20;14.37;;;8.30;;
18780;SDS011;9519;51.890;8.970;2023-02-08T18:04:22;16.37;;;9.50;;
18780;SDS011;9519;51.890;8.970;2023-02-08T18:09:24;12.00;;;7.17;;
18780;SDS011;9519;51.890;8.970;2023-02-08T18:14:28;13.63;;;8.27;;
18780;SDS011;9519;51.890;8.970;2023-02-08T18:19:31;13.90;;;9.60;;
18780;SDS011;9519;51.890;8.970;2023-02-08T18:24:34;17.43;;;10.00;;
18780;SDS011;9519;51.890;8.970;2023-02-08T18:29:37;21.00;;;9.33;;
18780;SDS011;9519;51.890;8.970;2023-02-08T18:34:39;15.30;;;8.97;;
18780;SDS011;9519;51.890;8.970;2023-02-08T18:39:44;18.43;;;10.17;;
18780;SDS011;9519;51.890;8.970;2023-02-08T18:44:47;14.70;;;9.50;;
18780;SDS011;9519;51.890;8.970;2023-02-08T18:49:51;18.37;;;9.57;;
18780;SDS011;9519;51.890;8.970;2023-02-08T18:54:54;13.73;;;8.97;;
18780;SDS011;9519;51.890;8.970;2023-02-08T18:59:58;15.73;;;9.57;;
18780;SDS011;9519;51.890;8.970;2023-02-08T19:05:00;16.57;;;8.33;;
18780;SDS011;9519;51.890;8.970;2023-02-08T19:10:02;16.23;;;9.07;;
18780;SDS011;9519;51.890;8.970;2023-02-08T19:15:07;19.63;;;11.13;;
18780;SDS011;9519;51.890;8.970;2023-02-08T19:20:10;18.20;;;10.97;;
18780;SDS011;9519;51.890;8.970;2023-02-08T19:25:12;14.03;;;8.47;;
18780;SDS011;9519;51.890;8.970;2023-02-08T19:30:16;16.47;;;9.27;;
18780;SDS011;9519;51.890;8.970;2023-02-08T19:35:19;16.00;;;9.30;;
18780;SDS011;9519;51.890;8.970;2023-02-08T19:40:24;14.67;;;8.43;;
18780;SDS011;9519;51.890;8.970;2023-02-08T19:45:27;14.53;;;9.10;;
18780;SDS011;9519;51.890;8.970;2023-02-08T19:50:30;16.80;;;9.43;;
18780;SDS011;9519;51.890;8.970;2023-02-08T19:55:32;16.73;;;9.80;;
18780;SDS011;9519;51.890;8.970;2023-02-08T20:00:35;14.77;;;9.10;;
18780;SDS011;9519;51.890;8.970;2023-02-08T20:05:37;15.00;;;8.23;;
18780;SDS011;9519;51.890;8.970;2023-02-08T20:10:40;16.67;;;8.93;;
18780;SDS011;9519;51.890;8.970;2023-02-08T20:15:46;18.80;;;10.53;;
18780;SDS011;9519;51.890;8.970;2023-02-08T20:20:57;21.37;;;11.33;;
18780;SDS011;9519;51.890;8.970;2023-02-08T20:26:02;25.77;;;13.67;;
18780;SDS011;9519;51.890;8.970;2023-02-08T20:31:08;21.50;;;12.73;;
18780;SDS011;9519;51.890;8.970;2023-02-08T20:36:14;17.33;;;10.57;;
18780;SDS011;9519;51.890;8.970;2023-02-08T20:41:19;15.67;;;9.17;;
18780;SDS011;9519;51.890;8.970;2023-02-08T20:46:26;15.67;;;10.27;;
18780;SDS011;9519;51.890;8.970;2023-02-08T20:51:31;15.13;;;9.40;;
18780;SDS011;9519;51.890;8.970;2023-02-08T20:56:34;19.70;;;10.03;;
18780;SDS011;9519;51.890;8.970;2023-02-08T21:01:39;19.57;;;10.77;;
18780;SDS011;9519;51.890;8.970;2023-02-08T21:06:42;16.27;;;9.90;;
18780;SDS011;9519;51.890;8.970;2023-02-08T21:11:45;17.93;;;10.27;;
18780;SDS011;9519;51.890;8.970;2023-02-08T21:16:49;18.73;;;11.70;;
18780;SDS011;9519;51.890;8.970;2023-02-08T21:21:55;17.43;;;10.70;;
18780;SDS011;9519;51.890;8.970;2023-02-08T21:27:00;19.10;;;12.23;;
18780;SDS011;9519;51.890;8.970;2023-02-08T21:32:04;21.67;;;12.67;;
18780;SDS011;9519;51.890;8.970;2023-02-08T21:37:06;17.73;;;10.97;;
18780;SDS011;9519;51.890;8.970;2023-02-08T21:42:08;19.27;;;11.00;;
18780;SDS011;9519;51.890;8.970;2023-02-08T21:47:11;20.63;;;11.13;;
18780;SDS011;9519;51.890;8.970;2023-02-08T21:52:13;20.17;;;11.87;;
18780;SDS011;9519;51.890;8.970;2023-02-08T21:57:33;21.63;;;12.33;;
18780;SDS011;9519;51.890;8.970;2023-02-08T22:02:41;21.47;;;13.30;;
18780;SDS011;9519;51.890;8.970;2023-02-08T22:07:44;21.97;;;12.60;;
18780;SDS011;9519;51.890;8.970;2023-02-08T22:12:48;21.67;;;12.70;;
18780;SDS011;9519;51.890;8.970;2023-02-08T22:17:53;20.63;;;12.43;;
18780;SDS011;9519;51.890;8.970;2023-02-08T22:22:57;20.23;;;11.73;;
18780;SDS011;9519;51.890;8.970;2023-02-08T22:28:00;20.30;;;12.00;;
18780;SDS011;9519;51.890;8.970;2023-02-08T22:33:04;22.70;;;13.37;;
18780;SDS011;9519;51.890;8.970;2023-02-08T22:38:06;22.57;;;12.90;;
18780;SDS011;9519;51.890;8.970;2023-02-08T22:43:09;18.63;;;11.30;;
18780;SDS011;9519;51.890;8.970;2023-02-08T22:48:12;17.57;;;11.83;;
18780;SDS011;9519;51.890;8.970;2023-02-08T22:53:14;21.07;;;13.13;;
18780;SDS011;9519;51.890;8.970;2023-02-08T22:58:16;24.20;;;12.17;;
18780;SDS011;9519;51.890;8.970;2023-02-08T23:03:20;20.57;;;12.20;;
18780;SDS011;9519;51.890;8.970;2023-02-08T23:08:22;20.40;;;12.57;;
18780;SDS011;9519;51.890;8.970;2023-02-08T23:13:25;20.67;;;12.67;;
18780;SDS011;9519;51.890;8.970;2023-02-08T23:18:31;18.40;;;12.10;;
18780;SDS011;9519;51.890;8.970;2023-02-08T23:23:35;18.80;;;11.97;;
18780;SDS011;9519;51.890;8.970;2023-02-08T23:28:37;21.63;;;12.57;;
18780;SDS011;9519;51.890;8.970;2023-02-08T23:33:41;19.60;;;11.53;;
18780;SDS011;9519;51.890;8.970;2023-02-08T23:38:44;21.40;;;12.97;;
18780;SDS011;9519;51.890;8.970;2023-02-08T23:43:48;20.63;;;11.67;;
18780;SDS011;9519;51.890;8.970;2023-02-08T23:48:53;21.93;;;13.73;;
18780;SDS011;9519;51.890;8.970;2023-02-08T23:53:56;20.03;;;12.43;;
18780;SDS011;9519;51.890;8.970;2023-02-08T23:58:58;25.03;;;14.70;;
